sensor_id;sensor_type;location;lat;lon;timestamp;P1;durP1;ratioP1;P2;durP2;ratioP2
45792;SDS011;31495;42.740;22.908;2023-08-21T00:00:45;10.27;;;5.07;;
45792;SDS011;31495;42.740;22.908;2023-08-21T00:01:44;7.90;;;4.68;;
45792;SDS011;31495;42.740;22.908;2023-08-21T00:02:44;7.65;;;4.53;;
45792;SDS011;31495;42.740;22.908;2023-08-21T00:03:43;6.57;;;4.80;;
45792;SDS011;31495;42.740;22.908;2023-08-21T00:04:43;6.85;;;4.82;;
45792;SDS011;31495;42.740;22.908;2023-08-21T00:05:42;8.93;;;4.18;;
45792;SDS011;31495;42.740;22.908;2023-08-21T00:06:41;9.75;;;4.78;;
45792;SDS011;31495;42.740;22.908;2023-08-21T00:07:41;8.60;;;4.47;;
45792;SDS011;31495;42.740;22.908;2023-08-21T00:08:41;7.43;;;4.78;;
45792;SDS011;31495;42.740;22.908;2023-08-21T00:09:40;8.23;;;4.75;;
45792;SDS011;31495;42.740;22.908;2023-08-21T00:10:39;7.78;;;3.88;;
45792;SDS011;31495;42.740;22.908;2023-08-21T00:11:40;6.97;;;4.85;;
45792;SDS011;31495;42.740;22.908;2023-08-21T00:12:39;9.18;;;4.75;;
45792;SDS011;31495;42.740;22.908;2023-08-21T00:13:39;7.63;;;4.57;;
45792;SDS011;31495;42.740;22.908;2023-08-21T00:14:38;5.25;;;3.70;;
45792;SDS011;31495;42.740;22.908;2023-08-21T00:15:38;6.60;;;4.82;;
45792;SDS011;31495;42.740;22.908;2023-08-21T00:16:38;7.10;;;4.90;;
45792;SDS011;31495;42.740;22.908;2023-08-21T00:17:37;6.15;;;4.32;;
45792;SDS011;31495;42.740;22.908;2023-08-21T00:18:36;5.78;;;4.40;;
45792;SDS011;31495;42.740;22.908;2023-08-21T00:19:36;5.90;;;4.57;;
45792;SDS011;31495;42.740;22.908;2023-08-21T00:20:36;7.53;;;4.43;;
45792;SDS011;31495;42.740;22.908;2023-08-21T00:21:35;6.70;;;4.72;;
45792;SDS011;31495;42.740;22.908;2023-08-21T00:22:35;9.25;;;5.18;;
45792;SDS011;31495;42.740;22.908;2023-08-21T00:23:35;8.43;;;5.03;;
45792;SDS011;31495;42.740;22.908;2023-08-21T00:24:35;7.65;;;5.15;;
45792;SDS011;31495;42.740;22.908;2023-08-21T00:25:34;9.02;;;4.60;;
45792;SDS011;31495;42.740;22.908;2023-08-21T00:26:34;6.78;;;4.63;;
45792;SDS011;31495;42.740;22.908;2023-08-21T00:27:33;8.50;;;4.45;;
45792;SDS011;31495;42.740;22.908;2023-08-21T00:28:33;7.15;;;4.70;;
45792;SDS011;31495;42.740;22.908;2023-08-21T00:29:33;7.70;;;4.30;;
45792;SDS011;31495;42.740;22.908;2023-08-21T00:30:33;6.03;;;4.43;;
45792;SDS011;31495;42.740;22.908;2023-08-21T00:31:32;5.85;;;4.15;;
45792;SDS011;31495;42.740;22.908;2023-08-21T00:32:32;5.28;;;3.80;;
45792;SDS011;31495;42.740;22.908;2023-08-21T00:33:31;7.75;;;4.60;;
45792;SDS011;31495;42.740;22.908;2023-08-21T00:34:32;7.70;;;5.10;;
45792;SDS011;31495;42.740;22.908;2023-08-21T00:35:31;6.90;;;4.75;;
45792;SDS011;31495;42.740;22.908;2023-08-21T00:36:31;5.65;;;4.60;;
45792;SDS011;31495;42.740;22.908;2023-08-21T00:37:30;7.75;;;5.05;;
45792;SDS011;31495;42.740;22.908;2023-08-21T00:38:29;8.55;;;4.65;;
45792;SDS011;31495;42.740;22.908;2023-08-21T00:39:29;8.63;;;4.57;;
45792;SDS011;31495;42.740;22.908;2023-08-21T00:40:29;6.88;;;5.15;;
45792;SDS011;31495;42.740;22.908;2023-08-21T00:41:30;7.05;;;4.85;;
45792;SDS011;31495;42.740;22.908;2023-08-21T00:42:33;13.68;;;5.00;;
45792;SDS011;31495;42.740;22.908;2023-08-21T00:43:32;9.52;;;5.03;;
45792;SDS011;31495;42.740;22.908;2023-08-21T00:44:32;8.40;;;4.38;;
45792;SDS011;31495;42.740;22.908;2023-08-21T00:45:31;6.80;;;5.13;;
45792;SDS011;31495;42.740;22.908;2023-08-21T00:46:31;6.90;;;4.38;;
45792;SDS011;31495;42.740;22.908;2023-08-21T00:47:31;7.72;;;5.30;;
45792;SDS011;31495;42.740;22.908;2023-08-21T00:48:30;6.00;;;4.60;;
45792;SDS011;31495;42.740;22.908;2023-08-21T00:49:30;7.63;;;4.63;;
45792;SDS011;31495;42.740;22.908;2023-08-21T00:50:30;6.50;;;4.35;;
45792;SDS011;31495;42.740;22.908;2023-08-21T00:51:30;7.82;;;4.90;;
45792;SDS011;31495;42.740;22.908;2023-08-21T00:52:29;7.70;;;4.63;;
45792;SDS011;31495;42.740;22.908;2023-08-21T00:53:29;6.85;;;5.20;;
45792;SDS011;31495;42.740;22.908;2023-08-21T00:54:29;8.05;;;4.97;;
45792;SDS011;31495;42.740;22.908;2023-08-21T00:55:29;8.80;;;5.18;;
45792;SDS011;31495;42.740;22.908;2023-08-21T00:56:30;10.15;;;4.82;;
45792;SDS011;31495;42.740;22.908;2023-08-21T00:57:30;6.80;;;4.63;;
45792;SDS011;31495;42.740;22.908;2023-08-21T00:58:31;7.03;;;5.28;;
45792;SDS011;31495;42.740;22.908;2023-08-21T00:59:30;13.02;;;5.13;;
45792;SDS011;31495;42.740;22.908;2023-08-21T01:00:30;6.35;;;4.80;;
45792;SDS011;31495;42.740;22.908;2023-08-21T01:01:30;6.32;;;4.50;;
45792;SDS011;31495;42.740;22.908;2023-08-21T01:02:29;7.05;;;4.45;;
45792;SDS011;31495;42.740;22.908;2023-08-21T01:03:29;7.68;;;5.10;;
45792;SDS011;31495;42.740;22.908;2023-08-21T01:04:28;5.97;;;4.40;;
45792;SDS011;31495;42.740;22.908;2023-08-21T01:05:27;5.57;;;4.45;;
45792;SDS011;31495;42.740;22.908;2023-08-21T01:06:27;8.02;;;4.88;;
45792;SDS011;31495;42.740;22.908;2023-08-21T01:07:27;7.43;;;4.70;;
45792;SDS011;31495;42.740;22.908;2023-08-21T01:11:01;6.25;;;4.32;;
45792;SDS011;31495;42.740;22.908;2023-08-21T01:15:00;7.88;;;5.47;;
45792;SDS011;31495;42.740;22.908;2023-08-21T01:16:03;7.03;;;5.38;;
45792;SDS011;31495;42.740;22.908;2023-08-21T01:17:03;6.95;;;4.72;;
45792;SDS011;31495;42.740;22.908;2023-08-21T01:18:06;9.68;;;5.28;;
45792;SDS011;31495;42.740;22.908;2023-08-21T01:19:09;10.13;;;4.63;;
45792;SDS011;31495;42.740;22.908;2023-08-21T01:20:18;7.43;;;4.78;;
45792;SDS011;31495;42.740;22.908;2023-08-21T01:21:18;6.35;;;4.75;;
45792;SDS011;31495;42.740;22.908;2023-08-21T01:22:18;5.05;;;4.10;;
45792;SDS011;31495;42.740;22.908;2023-08-21T01:23:36;7.07;;;4.95;;
45792;SDS011;31495;42.740;22.908;2023-08-21T01:24:36;8.32;;;5.15;;
45792;SDS011;31495;42.740;22.908;2023-08-21T01:25:36;7.38;;;5.15;;
45792;SDS011;31495;42.740;22.908;2023-08-21T01:26:36;11.73;;;5.22;;
45792;SDS011;31495;42.740;22.908;2023-08-21T01:27:36;6.20;;;4.80;;
45792;SDS011;31495;42.740;22.908;2023-08-21T01:28:36;8.95;;;4.68;;
45792;SDS011;31495;42.740;22.908;2023-08-21T01:29:36;8.35;;;5.70;;
45792;SDS011;31495;42.740;22.908;2023-08-21T01:30:36;7.78;;;5.20;;
45792;SDS011;31495;42.740;22.908;2023-08-21T01:31:36;6.95;;;5.07;;
45792;SDS011;31495;42.740;22.908;2023-08-21T01:33:48;8.07;;;4.85;;
45792;SDS011;31495;42.740;22.908;2023-08-21T01:34:52;6.78;;;5.60;;
45792;SDS011;31495;42.740;22.908;2023-08-21T01:35:54;11.65;;;4.95;;
45792;SDS011;31495;42.740;22.908;2023-08-21T01:36:57;9.48;;;6.18;;
45792;SDS011;31495;42.740;22.908;2023-08-21T01:37:56;7.55;;;5.70;;
45792;SDS011;31495;42.740;22.908;2023-08-21T01:38:57;6.38;;;4.88;;
45792;SDS011;31495;42.740;22.908;2023-08-21T01:40:00;5.80;;;4.55;;
45792;SDS011;31495;42.740;22.908;2023-08-21T01:40:59;8.60;;;5.10;;
45792;SDS011;31495;42.740;22.908;2023-08-21T01:41:58;8.15;;;5.50;;
45792;SDS011;31495;42.740;22.908;2023-08-21T01:42:58;9.65;;;4.85;;
45792;SDS011;31495;42.740;22.908;2023-08-21T01:43:57;6.88;;;4.63;;
45792;SDS011;31495;42.740;22.908;2023-08-21T01:44:57;6.30;;;4.95;;
45792;SDS011;31495;42.740;22.908;2023-08-21T01:45:57;7.32;;;5.20;;
45792;SDS011;31495;42.740;22.908;2023-08-21T01:46:56;9.43;;;5.30;;
45792;SDS011;31495;42.740;22.908;2023-08-21T01:47:56;7.32;;;5.38;;
45792;SDS011;31495;42.740;22.908;2023-08-21T01:48:55;6.32;;;4.93;;
45792;SDS011;31495;42.740;22.908;2023-08-21T01:49:55;6.93;;;5.00;;
45792;SDS011;31495;42.740;22.908;2023-08-21T01:50:54;6.45;;;4.82;;
45792;SDS011;31495;42.740;22.908;2023-08-21T01:51:53;9.13;;;5.00;;
45792;SDS011;31495;42.740;22.908;2023-08-21T01:52:53;5.63;;;4.75;;
45792;SDS011;31495;42.740;22.908;2023-08-21T01:53:52;7.00;;;5.32;;
45792;SDS011;31495;42.740;22.908;2023-08-21T01:54:52;5.80;;;4.68;;
45792;SDS011;31495;42.740;22.908;2023-08-21T01:55:51;6.97;;;5.45;;
45792;SDS011;31495;42.740;22.908;2023-08-21T01:56:51;6.63;;;4.80;;
45792;SDS011;31495;42.740;22.908;2023-08-21T01:57:50;8.25;;;4.75;;
45792;SDS011;31495;42.740;22.908;2023-08-21T01:58:50;5.80;;;4.70;;
45792;SDS011;31495;42.740;22.908;2023-08-21T01:59:50;10.90;;;5.47;;
45792;SDS011;31495;42.740;22.908;2023-08-21T02:00:49;6.53;;;5.03;;
45792;SDS011;31495;42.740;22.908;2023-08-21T02:01:49;6.38;;;5.13;;
45792;SDS011;31495;42.740;22.908;2023-08-21T02:02:48;9.93;;;4.97;;
45792;SDS011;31495;42.740;22.908;2023-08-21T02:03:48;7.18;;;5.18;;
45792;SDS011;31495;42.740;22.908;2023-08-21T02:04:48;8.80;;;4.80;;
45792;SDS011;31495;42.740;22.908;2023-08-21T02:05:49;10.27;;;5.65;;
45792;SDS011;31495;42.740;22.908;2023-08-21T02:06:48;8.70;;;5.53;;
45792;SDS011;31495;42.740;22.908;2023-08-21T02:07:47;6.97;;;4.75;;
45792;SDS011;31495;42.740;22.908;2023-08-21T02:08:48;6.93;;;4.60;;
45792;SDS011;31495;42.740;22.908;2023-08-21T02:09:48;9.75;;;5.20;;
45792;SDS011;31495;42.740;22.908;2023-08-21T02:10:51;6.38;;;4.35;;
45792;SDS011;31495;42.740;22.908;2023-08-21T02:11:51;9.15;;;4.32;;
45792;SDS011;31495;42.740;22.908;2023-08-21T02:12:50;8.90;;;5.10;;
45792;SDS011;31495;42.740;22.908;2023-08-21T02:13:50;7.85;;;5.15;;
45792;SDS011;31495;42.740;22.908;2023-08-21T02:14:50;7.13;;;4.85;;
45792;SDS011;31495;42.740;22.908;2023-08-21T02:15:49;6.80;;;4.97;;
45792;SDS011;31495;42.740;22.908;2023-08-21T02:16:49;11.30;;;5.65;;
45792;SDS011;31495;42.740;22.908;2023-08-21T02:17:48;7.15;;;4.75;;
45792;SDS011;31495;42.740;22.908;2023-08-21T02:18:48;6.43;;;4.65;;
45792;SDS011;31495;42.740;22.908;2023-08-21T02:19:47;8.50;;;4.78;;
45792;SDS011;31495;42.740;22.908;2023-08-21T02:20:47;8.07;;;5.07;;
45792;SDS011;31495;42.740;22.908;2023-08-21T02:21:47;7.55;;;5.63;;
45792;SDS011;31495;42.740;22.908;2023-08-21T02:22:47;6.30;;;4.38;;
45792;SDS011;31495;42.740;22.908;2023-08-21T02:23:46;7.95;;;4.55;;
45792;SDS011;31495;42.740;22.908;2023-08-21T02:24:46;10.60;;;4.75;;
45792;SDS011;31495;42.740;22.908;2023-08-21T02:25:45;6.00;;;4.90;;
45792;SDS011;31495;42.740;22.908;2023-08-21T02:26:45;7.20;;;5.68;;
45792;SDS011;31495;42.740;22.908;2023-08-21T02:27:45;7.32;;;5.50;;
45792;SDS011;31495;42.740;22.908;2023-08-21T02:28:45;8.60;;;5.25;;
45792;SDS011;31495;42.740;22.908;2023-08-21T02:29:45;6.85;;;5.28;;
45792;SDS011;31495;42.740;22.908;2023-08-21T02:30:45;5.50;;;4.53;;
45792;SDS011;31495;42.740;22.908;2023-08-21T02:31:44;9.52;;;5.30;;
45792;SDS011;31495;42.740;22.908;2023-08-21T02:32:43;5.55;;;4.63;;
45792;SDS011;31495;42.740;22.908;2023-08-21T02:33:43;7.60;;;4.80;;
45792;SDS011;31495;42.740;22.908;2023-08-21T02:34:42;7.68;;;5.22;;
45792;SDS011;31495;42.740;22.908;2023-08-21T02:35:42;8.05;;;4.75;;
45792;SDS011;31495;42.740;22.908;2023-08-21T02:36:41;6.95;;;4.90;;
45792;SDS011;31495;42.740;22.908;2023-08-21T02:37:41;6.88;;;4.80;;
45792;SDS011;31495;42.740;22.908;2023-08-21T02:38:40;6.75;;;5.10;;
45792;SDS011;31495;42.740;22.908;2023-08-21T02:39:39;7.25;;;5.30;;
45792;SDS011;31495;42.740;22.908;2023-08-21T02:40:39;6.43;;;5.22;;
45792;SDS011;31495;42.740;22.908;2023-08-21T02:41:38;8.38;;;4.95;;
45792;SDS011;31495;42.740;22.908;2023-08-21T02:42:38;5.95;;;4.22;;
45792;SDS011;31495;42.740;22.908;2023-08-21T02:43:37;14.20;;;4.65;;
45792;SDS011;31495;42.740;22.908;2023-08-21T02:44:37;9.88;;;5.03;;
45792;SDS011;31495;42.740;22.908;2023-08-21T02:45:36;8.07;;;4.80;;
45792;SDS011;31495;42.740;22.908;2023-08-21T02:46:35;8.98;;;5.88;;
45792;SDS011;31495;42.740;22.908;2023-08-21T02:47:38;7.47;;;5.47;;
45792;SDS011;31495;42.740;22.908;2023-08-21T02:48:38;7.53;;;5.10;;
45792;SDS011;31495;42.740;22.908;2023-08-21T02:49:38;7.25;;;4.50;;
45792;SDS011;31495;42.740;22.908;2023-08-21T02:50:37;7.47;;;5.28;;
45792;SDS011;31495;42.740;22.908;2023-08-21T02:51:37;5.95;;;4.68;;
45792;SDS011;31495;42.740;22.908;2023-08-21T02:52:37;6.57;;;5.40;;
45792;SDS011;31495;42.740;22.908;2023-08-21T02:53:36;7.35;;;5.05;;
45792;SDS011;31495;42.740;22.908;2023-08-21T02:54:36;5.85;;;4.63;;
45792;SDS011;31495;42.740;22.908;2023-08-21T02:55:35;7.63;;;5.28;;
45792;SDS011;31495;42.740;22.908;2023-08-21T02:56:35;6.28;;;4.97;;
45792;SDS011;31495;42.740;22.908;2023-08-21T02:57:34;6.68;;;4.63;;
45792;SDS011;31495;42.740;22.908;2023-08-21T02:58:33;11.07;;;4.90;;
45792;SDS011;31495;42.740;22.908;2023-08-21T02:59:33;8.88;;;4.78;;
45792;SDS011;31495;42.740;22.908;2023-08-21T03:00:32;6.95;;;5.05;;
45792;SDS011;31495;42.740;22.908;2023-08-21T03:01:31;7.93;;;4.80;;
45792;SDS011;31495;42.740;22.908;2023-08-21T03:02:31;6.68;;;4.90;;
45792;SDS011;31495;42.740;22.908;2023-08-21T03:03:31;6.63;;;4.82;;
45792;SDS011;31495;42.740;22.908;2023-08-21T03:04:33;7.82;;;4.95;;
45792;SDS011;31495;42.740;22.908;2023-08-21T03:05:32;7.90;;;5.70;;
45792;SDS011;31495;42.740;22.908;2023-08-21T03:06:31;6.90;;;5.47;;
45792;SDS011;31495;42.740;22.908;2023-08-21T03:07:31;10.70;;;5.35;;
45792;SDS011;31495;42.740;22.908;2023-08-21T03:08:31;6.13;;;4.68;;
45792;SDS011;31495;42.740;22.908;2023-08-21T03:09:30;6.88;;;5.20;;
45792;SDS011;31495;42.740;22.908;2023-08-21T03:10:30;6.75;;;5.03;;
45792;SDS011;31495;42.740;22.908;2023-08-21T03:11:32;9.00;;;4.72;;
45792;SDS011;31495;42.740;22.908;2023-08-21T03:12:32;9.07;;;5.45;;
45792;SDS011;31495;42.740;22.908;2023-08-21T03:13:31;7.15;;;5.20;;
45792;SDS011;31495;42.740;22.908;2023-08-21T03:14:30;11.35;;;5.85;;
45792;SDS011;31495;42.740;22.908;2023-08-21T03:15:30;6.68;;;5.10;;
45792;SDS011;31495;42.740;22.908;2023-08-21T03:16:30;7.78;;;5.55;;
45792;SDS011;31495;42.740;22.908;2023-08-21T03:17:29;6.50;;;5.13;;
45792;SDS011;31495;42.740;22.908;2023-08-21T03:18:30;6.75;;;5.28;;
45792;SDS011;31495;42.740;22.908;2023-08-21T03:19:30;6.70;;;5.10;;
45792;SDS011;31495;42.740;22.908;2023-08-21T03:20:29;7.70;;;5.20;;
45792;SDS011;31495;42.740;22.908;2023-08-21T03:21:29;10.18;;;5.40;;
45792;SDS011;31495;42.740;22.908;2023-08-21T03:22:28;6.78;;;5.22;;
45792;SDS011;31495;42.740;22.908;2023-08-21T03:23:28;7.53;;;5.03;;
45792;SDS011;31495;42.740;22.908;2023-08-21T03:24:27;8.60;;;4.80;;
45792;SDS011;31495;42.740;22.908;2023-08-21T03:25:27;7.97;;;5.25;;
45792;SDS011;31495;42.740;22.908;2023-08-21T03:26:27;6.80;;;4.95;;
45792;SDS011;31495;42.740;22.908;2023-08-21T03:27:26;7.28;;;5.43;;
45792;SDS011;31495;42.740;22.908;2023-08-21T03:28:26;7.40;;;5.47;;
45792;SDS011;31495;42.740;22.908;2023-08-21T03:29:25;8.68;;;4.97;;
45792;SDS011;31495;42.740;22.908;2023-08-21T03:30:25;6.60;;;5.35;;
45792;SDS011;31495;42.740;22.908;2023-08-21T03:31:24;8.23;;;5.63;;
45792;SDS011;31495;42.740;22.908;2023-08-21T03:32:23;8.77;;;4.43;;
45792;SDS011;31495;42.740;22.908;2023-08-21T03:33:23;7.20;;;4.82;;
45792;SDS011;31495;42.740;22.908;2023-08-21T03:34:22;9.50;;;4.85;;
45792;SDS011;31495;42.740;22.908;2023-08-21T03:35:22;7.47;;;5.78;;
45792;SDS011;31495;42.740;22.908;2023-08-21T03:36:22;8.88;;;5.05;;
45792;SDS011;31495;42.740;22.908;2023-08-21T03:37:30;9.88;;;4.95;;
45792;SDS011;31495;42.740;22.908;2023-08-21T03:38:30;7.43;;;4.60;;
45792;SDS011;31495;42.740;22.908;2023-08-21T03:39:29;8.30;;;5.10;;
45792;SDS011;31495;42.740;22.908;2023-08-21T03:40:28;8.27;;;5.20;;
45792;SDS011;31495;42.740;22.908;2023-08-21T03:41:28;7.78;;;5.00;;
45792;SDS011;31495;42.740;22.908;2023-08-21T03:42:27;8.80;;;5.40;;
45792;SDS011;31495;42.740;22.908;2023-08-21T03:43:27;7.32;;;4.80;;
45792;SDS011;31495;42.740;22.908;2023-08-21T03:44:26;7.82;;;4.78;;
45792;SDS011;31495;42.740;22.908;2023-08-21T03:45:25;11.48;;;4.82;;
45792;SDS011;31495;42.740;22.908;2023-08-21T03:46:25;7.82;;;4.65;;
45792;SDS011;31495;42.740;22.908;2023-08-21T03:47:24;9.30;;;5.45;;
45792;SDS011;31495;42.740;22.908;2023-08-21T03:48:24;11.35;;;5.85;;
45792;SDS011;31495;42.740;22.908;2023-08-21T03:49:24;7.15;;;5.18;;
45792;SDS011;31495;42.740;22.908;2023-08-21T03:50:23;9.40;;;5.00;;
45792;SDS011;31495;42.740;22.908;2023-08-21T03:51:22;10.77;;;5.07;;
45792;SDS011;31495;42.740;22.908;2023-08-21T03:52:22;12.50;;;5.85;;
45792;SDS011;31495;42.740;22.908;2023-08-21T03:53:21;7.20;;;5.03;;
45792;SDS011;31495;42.740;22.908;2023-08-21T03:54:21;6.82;;;5.43;;
45792;SDS011;31495;42.740;22.908;2023-08-21T03:55:20;9.90;;;5.65;;
45792;SDS011;31495;42.740;22.908;2023-08-21T03:56:20;8.23;;;5.50;;
45792;SDS011;31495;42.740;22.908;2023-08-21T03:57:20;10.57;;;5.57;;
45792;SDS011;31495;42.740;22.908;2023-08-21T03:58:19;7.15;;;4.80;;
45792;SDS011;31495;42.740;22.908;2023-08-21T03:59:19;10.30;;;5.50;;
45792;SDS011;31495;42.740;22.908;2023-08-21T04:00:18;8.65;;;5.32;;
45792;SDS011;31495;42.740;22.908;2023-08-21T04:01:18;8.88;;;6.10;;
45792;SDS011;31495;42.740;22.908;2023-08-21T04:02:18;8.65;;;5.45;;
45792;SDS011;31495;42.740;22.908;2023-08-21T04:03:17;10.80;;;5.30;;
45792;SDS011;31495;42.740;22.908;2023-08-21T04:04:17;10.48;;;5.50;;
45792;SDS011;31495;42.740;22.908;2023-08-21T04:05:16;10.55;;;5.90;;
45792;SDS011;31495;42.740;22.908;2023-08-21T04:06:15;8.57;;;5.05;;
45792;SDS011;31495;42.740;22.908;2023-08-21T04:07:15;10.65;;;5.20;;
45792;SDS011;31495;42.740;22.908;2023-08-21T04:08:14;7.65;;;6.03;;
45792;SDS011;31495;42.740;22.908;2023-08-21T04:09:14;8.35;;;5.13;;
45792;SDS011;31495;42.740;22.908;2023-08-21T04:10:14;9.07;;;5.03;;
45792;SDS011;31495;42.740;22.908;2023-08-21T04:11:15;6.47;;;4.88;;
45792;SDS011;31495;42.740;22.908;2023-08-21T04:12:14;7.50;;;5.40;;
45792;SDS011;31495;42.740;22.908;2023-08-21T04:13:14;9.02;;;5.32;;
45792;SDS011;31495;42.740;22.908;2023-08-21T04:14:13;10.45;;;5.10;;
45792;SDS011;31495;42.740;22.908;2023-08-21T04:15:13;9.05;;;6.05;;
45792;SDS011;31495;42.740;22.908;2023-08-21T04:16:12;7.10;;;5.07;;
45792;SDS011;31495;42.740;22.908;2023-08-21T04:17:12;10.68;;;5.47;;
45792;SDS011;31495;42.740;22.908;2023-08-21T04:18:12;9.35;;;5.32;;
45792;SDS011;31495;42.740;22.908;2023-08-21T04:19:11;6.63;;;5.15;;
45792;SDS011;31495;42.740;22.908;2023-08-21T04:20:11;7.57;;;5.57;;
45792;SDS011;31495;42.740;22.908;2023-08-21T04:21:11;9.05;;;5.80;;
45792;SDS011;31495;42.740;22.908;2023-08-21T04:22:10;8.73;;;5.47;;
45792;SDS011;31495;42.740;22.908;2023-08-21T04:23:09;7.82;;;5.75;;
45792;SDS011;31495;42.740;22.908;2023-08-21T04:24:09;8.65;;;5.95;;
45792;SDS011;31495;42.740;22.908;2023-08-21T04:25:09;15.65;;;6.68;;
45792;SDS011;31495;42.740;22.908;2023-08-21T04:26:09;8.77;;;5.97;;
45792;SDS011;31495;42.740;22.908;2023-08-21T04:27:08;12.27;;;6.18;;
45792;SDS011;31495;42.740;22.908;2023-08-21T04:28:07;7.78;;;5.57;;
45792;SDS011;31495;42.740;22.908;2023-08-21T04:29:07;8.63;;;6.18;;
45792;SDS011;31495;42.740;22.908;2023-08-21T04:30:07;10.80;;;6.40;;
45792;SDS011;31495;42.740;22.908;2023-08-21T04:31:07;11.15;;;5.53;;
45792;SDS011;31495;42.740;22.908;2023-08-21T04:32:07;13.18;;;6.28;;
45792;SDS011;31495;42.740;22.908;2023-08-21T04:33:07;7.78;;;5.55;;
45792;SDS011;31495;42.740;22.908;2023-08-21T04:34:06;19.35;;;6.78;;
45792;SDS011;31495;42.740;22.908;2023-08-21T04:35:06;10.73;;;5.72;;
45792;SDS011;31495;42.740;22.908;2023-08-21T04:36:07;9.23;;;6.00;;
45792;SDS011;31495;42.740;22.908;2023-08-21T04:37:13;10.52;;;6.05;;
45792;SDS011;31495;42.740;22.908;2023-08-21T04:38:13;7.47;;;6.15;;
45792;SDS011;31495;42.740;22.908;2023-08-21T04:39:12;9.32;;;5.80;;
45792;SDS011;31495;42.740;22.908;2023-08-21T04:40:12;12.35;;;6.38;;
45792;SDS011;31495;42.740;22.908;2023-08-21T04:41:11;11.90;;;6.85;;
45792;SDS011;31495;42.740;22.908;2023-08-21T04:42:11;8.43;;;5.95;;
45792;SDS011;31495;42.740;22.908;2023-08-21T04:43:10;10.20;;;7.05;;
45792;SDS011;31495;42.740;22.908;2023-08-21T04:44:09;12.38;;;7.28;;
45792;SDS011;31495;42.740;22.908;2023-08-21T04:45:09;10.45;;;6.30;;
45792;SDS011;31495;42.740;22.908;2023-08-21T04:46:09;8.02;;;6.57;;
45792;SDS011;31495;42.740;22.908;2023-08-21T04:47:21;10.73;;;6.10;;
45792;SDS011;31495;42.740;22.908;2023-08-21T04:48:27;10.88;;;6.28;;
45792;SDS011;31495;42.740;22.908;2023-08-21T04:49:27;10.45;;;6.50;;
45792;SDS011;31495;42.740;22.908;2023-08-21T04:50:26;9.85;;;6.40;;
45792;SDS011;31495;42.740;22.908;2023-08-21T04:51:25;6.65;;;5.38;;
45792;SDS011;31495;42.740;22.908;2023-08-21T04:52:25;14.95;;;5.70;;
45792;SDS011;31495;42.740;22.908;2023-08-21T04:53:25;9.75;;;5.50;;
45792;SDS011;31495;42.740;22.908;2023-08-21T04:54:24;11.02;;;6.05;;
45792;SDS011;31495;42.740;22.908;2023-08-21T04:55:23;6.90;;;5.22;;
45792;SDS011;31495;42.740;22.908;2023-08-21T04:56:23;12.35;;;5.32;;
45792;SDS011;31495;42.740;22.908;2023-08-21T04:57:22;8.85;;;6.43;;
45792;SDS011;31495;42.740;22.908;2023-08-21T04:58:22;8.77;;;5.95;;
45792;SDS011;31495;42.740;22.908;2023-08-21T04:59:21;13.75;;;8.20;;
45792;SDS011;31495;42.740;22.908;2023-08-21T05:00:21;15.80;;;8.35;;
45792;SDS011;31495;42.740;22.908;2023-08-21T05:01:20;17.95;;;7.20;;
45792;SDS011;31495;42.740;22.908;2023-08-21T05:02:20;9.55;;;6.75;;
45792;SDS011;31495;42.740;22.908;2023-08-21T05:03:19;8.65;;;5.95;;
45792;SDS011;31495;42.740;22.908;2023-08-21T05:04:19;9.30;;;6.28;;
45792;SDS011;31495;42.740;22.908;2023-08-21T05:05:18;11.80;;;6.82;;
45792;SDS011;31495;42.740;22.908;2023-08-21T05:06:19;9.60;;;6.18;;
45792;SDS011;31495;42.740;22.908;2023-08-21T05:07:19;8.48;;;6.28;;
45792;SDS011;31495;42.740;22.908;2023-08-21T05:08:18;11.93;;;7.22;;
45792;SDS011;31495;42.740;22.908;2023-08-21T05:09:18;11.18;;;6.10;;
45792;SDS011;31495;42.740;22.908;2023-08-21T05:10:17;16.80;;;6.28;;
45792;SDS011;31495;42.740;22.908;2023-08-21T05:11:17;15.43;;;6.22;;
45792;SDS011;31495;42.740;22.908;2023-08-21T05:12:16;14.32;;;6.55;;
45792;SDS011;31495;42.740;22.908;2023-08-21T05:13:16;16.35;;;6.70;;
45792;SDS011;31495;42.740;22.908;2023-08-21T05:14:17;10.30;;;5.95;;
45792;SDS011;31495;42.740;22.908;2023-08-21T05:16:18;15.40;;;6.43;;
45792;SDS011;31495;42.740;22.908;2023-08-21T05:17:17;11.77;;;5.95;;
45792;SDS011;31495;42.740;22.908;2023-08-21T05:18:16;9.85;;;7.20;;
45792;SDS011;31495;42.740;22.908;2023-08-21T05:19:16;13.95;;;6.80;;
45792;SDS011;31495;42.740;22.908;2023-08-21T05:20:16;15.20;;;7.15;;
45792;SDS011;31495;42.740;22.908;2023-08-21T05:21:16;7.95;;;5.90;;
45792;SDS011;31495;42.740;22.908;2023-08-21T05:22:16;13.80;;;6.80;;
45792;SDS011;31495;42.740;22.908;2023-08-21T05:23:15;11.18;;;6.53;;
45792;SDS011;31495;42.740;22.908;2023-08-21T05:24:15;8.25;;;6.97;;
45792;SDS011;31495;42.740;22.908;2023-08-21T05:25:15;8.50;;;6.32;;
45792;SDS011;31495;42.740;22.908;2023-08-21T05:26:14;15.40;;;6.95;;
45792;SDS011;31495;42.740;22.908;2023-08-21T05:27:14;10.90;;;6.47;;
45792;SDS011;31495;42.740;22.908;2023-08-21T05:28:13;10.70;;;6.70;;
45792;SDS011;31495;42.740;22.908;2023-08-21T05:29:12;15.48;;;6.57;;
45792;SDS011;31495;42.740;22.908;2023-08-21T05:30:12;9.55;;;6.55;;
45792;SDS011;31495;42.740;22.908;2023-08-21T05:31:12;10.65;;;5.88;;
45792;SDS011;31495;42.740;22.908;2023-08-21T05:32:12;11.82;;;6.50;;
45792;SDS011;31495;42.740;22.908;2023-08-21T05:33:11;9.18;;;6.32;;
45792;SDS011;31495;42.740;22.908;2023-08-21T05:34:10;18.05;;;6.65;;
45792;SDS011;31495;42.740;22.908;2023-08-21T05:35:10;8.98;;;6.18;;
45792;SDS011;31495;42.740;22.908;2023-08-21T05:36:10;9.52;;;6.25;;
45792;SDS011;31495;42.740;22.908;2023-08-21T05:37:09;17.25;;;6.78;;
45792;SDS011;31495;42.740;22.908;2023-08-21T05:38:08;15.85;;;6.57;;
45792;SDS011;31495;42.740;22.908;2023-08-21T05:39:08;10.10;;;6.40;;
45792;SDS011;31495;42.740;22.908;2023-08-21T05:40:08;10.38;;;6.63;;
45792;SDS011;31495;42.740;22.908;2023-08-21T05:41:08;16.42;;;6.60;;
45792;SDS011;31495;42.740;22.908;2023-08-21T05:42:07;12.32;;;6.22;;
45792;SDS011;31495;42.740;22.908;2023-08-21T05:43:08;9.27;;;6.40;;
45792;SDS011;31495;42.740;22.908;2023-08-21T05:44:07;7.15;;;5.18;;
45792;SDS011;31495;42.740;22.908;2023-08-21T05:45:07;9.68;;;6.53;;
45792;SDS011;31495;42.740;22.908;2023-08-21T05:46:07;8.57;;;5.80;;
45792;SDS011;31495;42.740;22.908;2023-08-21T05:47:07;8.13;;;5.88;;
45792;SDS011;31495;42.740;22.908;2023-08-21T05:48:06;26.42;;;6.53;;
45792;SDS011;31495;42.740;22.908;2023-08-21T05:49:05;8.73;;;6.30;;
45792;SDS011;31495;42.740;22.908;2023-08-21T05:50:05;8.88;;;6.13;;
45792;SDS011;31495;42.740;22.908;2023-08-21T05:51:05;14.25;;;6.30;;
45792;SDS011;31495;42.740;22.908;2023-08-21T05:52:04;9.90;;;6.88;;
45792;SDS011;31495;42.740;22.908;2023-08-21T05:53:04;8.07;;;6.28;;
45792;SDS011;31495;42.740;22.908;2023-08-21T05:54:03;11.77;;;6.55;;
45792;SDS011;31495;42.740;22.908;2023-08-21T05:55:04;13.05;;;6.70;;
45792;SDS011;31495;42.740;22.908;2023-08-21T05:56:04;13.23;;;7.45;;
45792;SDS011;31495;42.740;22.908;2023-08-21T05:57:03;12.52;;;7.15;;
45792;SDS011;31495;42.740;22.908;2023-08-21T05:58:04;16.52;;;7.68;;
45792;SDS011;31495;42.740;22.908;2023-08-21T05:59:03;11.52;;;5.93;;
45792;SDS011;31495;42.740;22.908;2023-08-21T06:00:02;9.65;;;6.35;;
45792;SDS011;31495;42.740;22.908;2023-08-21T06:01:02;12.63;;;6.70;;
45792;SDS011;31495;42.740;22.908;2023-08-21T06:02:02;9.63;;;6.82;;